createdAt,value
2023-02-08T00:02:44.298Z,25.00
2023-02-08T00:06:46.770Z,27.50
2023-02-08T00:10:49.867Z,27.00
2023-02-08T00:14:53.947Z,27.40
2023-02-08T00:18:56.878Z,28.10
2023-02-08T00:23:00.197Z,29.80
2023-02-08T00:27:02.171Z,26.80
2023-02-08T00:31:05.331Z,28.70
2023-02-08T00:35:08.899Z,28.50
2023-02-08T00:39:11.198Z,25.60
2023-02-08T00:43:14.406Z,26.20
2023-02-08T00:47:17.115Z,24.00
2023-02-08T00:51:20.541Z,23.90
2023-02-08T00:55:23.549Z,25.30
2023-02-08T00:59:27.295Z,22.70
2023-02-08T01:03:29.422Z,26.30
2023-02-08T01:07:32.148Z,22.40
2023-02-08T01:11:35.146Z,20.60
2023-02-08T01:15:37.647Z,24.90
2023-02-08T01:19:42.583Z,19.20
2023-02-08T01:23:46.093Z,19.70
2023-02-08T01:27:49.494Z,19.80
2023-02-08T01:31:52.578Z,21.70
2023-02-08T01:35:55.275Z,22.80
2023-02-08T01:39:57.504Z,20.20
2023-02-08T01:44:47.224Z,16.90
2023-02-08T01:48:52.320Z,16.60
2023-02-08T01:52:56.058Z,17.90
2023-02-08T01:57:00.573Z,21.00
2023-02-08T02:01:03.321Z,13.30
2023-02-08T02:05:06.430Z,16.00
2023-02-08T02:09:28.148Z,12.90
2023-02-08T02:13:31.984Z,13.90
2023-02-08T02:17:37.264Z,17.10
2023-02-08T02:21:53.436Z,18.50
2023-02-08T02:26:20.890Z,15.00
2023-02-08T02:30:52.866Z,16.00
2023-02-08T02:35:55.922Z,15.50
2023-02-08T02:39:59.031Z,14.80
2023-02-08T02:44:02.299Z,11.10
2023-02-08T02:48:42.505Z,16.60
2023-02-08T02:53:21.165Z,15.20
2023-02-08T02:57:31.936Z,13.50
2023-02-08T03:01:34.824Z,13.10
2023-02-08T03:05:38.550Z,13.60
2023-02-08T03:09:59.664Z,16.50
2023-02-08T03:14:27.955Z,12.10
2023-02-08T03:18:30.102Z,15.70
2023-02-08T03:22:43.467Z,17.40
2023-02-08T03:27:01.365Z,15.50
2023-02-08T03:31:18.153Z,15.90
2023-02-08T03:35:36.175Z,11.50
2023-02-08T03:39:39.795Z,13.60
2023-02-08T03:43:49.968Z,12.80
2023-02-08T03:47:55.609Z,15.70
2023-02-08T03:52:01.595Z,15.20
2023-02-08T03:56:10.404Z,11.60
2023-02-08T04:00:17.296Z,12.90
2023-02-08T04:04:22.554Z,12.40
2023-02-08T04:08:25.112Z,12.70
2023-02-08T04:12:30.429Z,14.50
2023-02-08T04:16:36.578Z,18.00
2023-02-08T04:20:39.575Z,17.50
2023-02-08T04:24:42.654Z,15.90
2023-02-08T04:28:44.828Z,17.40
2023-02-08T04:32:47.674Z,16.60
2023-02-08T04:36:50.523Z,14.60
2023-02-08T04:40:52.828Z,21.90
2023-02-08T04:44:55.094Z,14.50
2023-02-08T04:48:58.871Z,17.70
2023-02-08T04:53:01.370Z,18.70
2023-02-08T04:57:04.565Z,19.70
2023-02-08T05:01:33.002Z,26.00
2023-02-08T05:05:35.287Z,23.90
2023-02-08T05:09:37.348Z,20.40
2023-02-08T05:13:40.382Z,21.50
2023-02-08T05:17:43.521Z,16.40
2023-02-08T05:21:45.910Z,21.50
2023-02-08T05:25:49.261Z,22.70
2023-02-08T05:29:52.760Z,23.30
2023-02-08T05:33:56.864Z,17.50
2023-02-08T05:38:09.633Z,21.30
2023-02-08T05:42:11.987Z,18.80
2023-02-08T05:46:14.804Z,22.30
2023-02-08T05:50:17.854Z,19.10
2023-02-08T05:54:44.675Z,19.10
2023-02-08T05:58:47.237Z,23.30
2023-02-08T06:02:49.563Z,19.30
2023-02-08T06:06:51.782Z,19.20
2023-02-08T06:15:19.996Z,26.50
2023-02-08T06:19:22.120Z,21.00
2023-02-08T06:23:31.273Z,22.00
2023-02-08T06:27:33.458Z,17.50
2023-02-08T06:35:54.563Z,20.00
2023-02-08T06:39:57.307Z,18.10
2023-02-08T06:44:01.142Z,21.80
2023-02-08T06:48:04.466Z,19.40
2023-02-08T06:52:07.533Z,22.70
2023-02-08T06:56:10.739Z,23.00
2023-02-08T07:00:14.276Z,27.90
2023-02-08T07:04:20.652Z,33.50
2023-02-08T07:08:23.498Z,39.50
2023-02-08T07:12:26.318Z,26.30
2023-02-08T07:16:29.100Z,26.20
2023-02-08T07:20:32.401Z,22.70
2023-02-08T07:24:37.824Z,26.30
2023-02-08T07:28:42.083Z,25.30
2023-02-08T07:32:48.542Z,25.30
2023-02-08T07:36:51.774Z,41.40
2023-02-08T07:41:26.971Z,32.20
2023-02-08T07:45:33.580Z,29.20
2023-02-08T07:49:41.454Z,27.60
2023-02-08T07:53:43.694Z,30.80
2023-02-08T08:02:04.091Z,23.00
2023-02-08T08:06:06.518Z,20.40
2023-02-08T08:10:08.954Z,30.40
2023-02-08T08:14:11.110Z,28.10
2023-02-08T08:18:13.476Z,30.70
2023-02-08T08:22:15.450Z,33.50
2023-02-08T08:30:35.992Z,24.10
2023-02-08T08:34:38.987Z,27.70
2023-02-08T08:38:46.798Z,21.70
2023-02-08T08:42:49.789Z,18.40
2023-02-08T08:46:58.579Z,21.60
2023-02-08T08:51:03.256Z,23.10
2023-02-08T08:55:07.172Z,24.50
2023-02-08T08:59:16.148Z,15.80
2023-02-08T09:03:19.231Z,23.60
2023-02-08T09:07:21.975Z,24.60
2023-02-08T09:11:24.611Z,32.00
2023-02-08T09:15:26.832Z,19.00
2023-02-08T09:19:28.996Z,18.90
2023-02-08T09:23:31.108Z,20.70
2023-02-08T09:27:34.544Z,20.80
2023-02-08T09:31:37.443Z,19.30
2023-02-08T09:35:40.287Z,16.00
2023-02-08T09:39:43.137Z,19.90
2023-02-08T09:44:04.549Z,19.40
2023-02-08T09:48:23.647Z,14.80
2023-02-08T09:52:44.096Z,15.10
2023-02-08T09:56:48.903Z,14.10
2023-02-08T10:00:53.229Z,9.20
2023-02-08T10:05:00.956Z,18.70
2023-02-08T10:14:00.241Z,12.60
2023-02-08T10:23:21.935Z,9.90
2023-02-08T10:32:40.911Z,12.90
2023-02-08T10:41:42.002Z,18.90
2023-02-08T10:46:07.264Z,24.40
2023-02-08T10:50:24.561Z,25.50
2023-02-08T11:12:56.067Z,19.70
2023-02-08T11:22:18.286Z,11.70
2023-02-08T11:26:37.208Z,16.90
2023-02-08T11:42:37.198Z,15.10
2023-02-08T11:58:08.449Z,18.70
2023-02-08T12:54:46.481Z,30.40
2023-02-08T13:17:13.637Z,27.30
2023-02-08T13:21:27.432Z,28.30
2023-02-08T13:25:37.559Z,26.60
2023-02-08T13:29:44.604Z,28.90
2023-02-08T13:34:25.318Z,30.30
2023-02-08T13:38:34.133Z,29.50
2023-02-08T13:42:45.122Z,31.20
2023-02-08T13:46:52.773Z,29.30
2023-02-08T13:50:57.678Z,27.50
2023-02-08T13:55:34.161Z,33.00
2023-02-08T13:59:42.551Z,30.70
2023-02-08T14:04:11.938Z,24.50
2023-02-08T14:08:25.522Z,32.10
2023-02-08T14:12:56.190Z,33.00
2023-02-08T14:17:21.633Z,29.60
2023-02-08T14:21:32.563Z,30.40
2023-02-08T14:25:50.030Z,29.80
2023-02-08T14:30:17.275Z,27.80
2023-02-08T14:34:28.408Z,27.70
2023-02-08T14:38:53.966Z,28.00
2023-02-08T14:43:30.281Z,30.50
2023-02-08T14:47:36.401Z,30.80
2023-02-08T14:51:50.071Z,33.50
2023-02-08T14:56:05.422Z,34.00
2023-02-08T15:00:35.748Z,41.50
2023-02-08T15:04:45.095Z,34.20
2023-02-08T15:08:52.964Z,32.30
2023-02-08T15:13:04.377Z,38.20
2023-02-08T15:17:25.145Z,34.40
2023-02-08T15:21:32.591Z,37.70
2023-02-08T15:25:43.960Z,38.30
2023-02-08T15:29:48.986Z,38.60
2023-02-08T15:33:55.142Z,37.90
2023-02-08T15:38:01.875Z,38.50
2023-02-08T15:46:27.713Z,42.10
2023-02-08T15:50:34.932Z,44.90
2023-02-08T15:54:40.015Z,42.90
2023-02-08T15:58:51.743Z,42.20
2023-02-08T16:03:03.267Z,41.90
2023-02-08T16:07:07.732Z,43.30
2023-02-08T16:11:31.127Z,47.50
2023-02-08T16:15:45.536Z,47.00
2023-02-08T16:20:04.892Z,47.80
2023-02-08T16:24:11.957Z,48.40
2023-02-08T16:28:34.040Z,47.00
2023-02-08T16:32:39.965Z,47.10
2023-02-08T16:36:50.073Z,44.80
2023-02-08T16:40:59.759Z,46.70
2023-02-08T16:45:09.767Z,49.40
2023-02-08T16:49:24.566Z,42.90
2023-02-08T16:53:49.426Z,45.90
2023-02-08T16:57:56.167Z,50.20
2023-02-08T17:01:59.556Z,50.30
2023-02-08T17:06:03.737Z,51.20
2023-02-08T17:10:14.721Z,46.60
2023-02-08T17:14:18.880Z,49.00
2023-02-08T17:18:24.595Z,50.50
2023-02-08T17:22:27.890Z,48.90
2023-02-08T17:26:42.914Z,44.70
2023-02-08T17:30:51.199Z,55.60
2023-02-08T17:34:55.358Z,46.10
2023-02-08T17:38:59.371Z,51.90
2023-02-08T17:43:04.729Z,56.70
2023-02-08T17:47:08.213Z,53.50
2023-02-08T17:51:16.208Z,66.90
2023-02-08T17:55:20.104Z,62.80
2023-02-08T17:59:45.430Z,45.00
2023-02-08T18:03:55.381Z,51.70
2023-02-08T18:08:00.555Z,41.80
2023-02-08T18:12:05.472Z,44.50
2023-02-08T18:16:24.362Z,50.70
2023-02-08T18:20:28.592Z,47.80
2023-02-08T18:24:32.817Z,49.80
2023-02-08T18:28:48.912Z,54.80
2023-02-08T18:32:53.065Z,48.00
2023-02-08T18:37:17.380Z,43.20
2023-02-08T18:46:34.005Z,52.50
2023-02-08T18:51:00.344Z,52.90
2023-02-08T18:55:09.617Z,49.60
2023-02-08T18:59:50.698Z,52.40
2023-02-08T19:08:45.991Z,67.90
2023-02-08T19:12:52.022Z,59.80
2023-02-08T19:16:57.932Z,48.30
2023-02-08T19:21:13.401Z,55.30
2023-02-08T19:25:18.424Z,52.20
2023-02-08T19:29:57.303Z,48.60
2023-02-08T19:34:05.563Z,51.10
2023-02-08T19:42:53.914Z,69.80
2023-02-08T19:47:16.513Z,65.20
2023-02-08T19:52:32.504Z,78.90
2023-02-08T19:57:39.233Z,174.50
2023-02-08T20:01:50.431Z,113.70
2023-02-08T20:05:54.797Z,63.40
2023-02-08T20:09:58.198Z,52.60
2023-02-08T20:14:02.805Z,52.40
2023-02-08T20:18:06.720Z,55.30
2023-02-08T20:22:10.169Z,52.00
2023-02-08T20:26:22.089Z,49.90
2023-02-08T20:30:25.919Z,44.30
2023-02-08T20:34:29.216Z,51.70
2023-02-08T20:38:32.439Z,47.90
2023-02-08T20:42:35.983Z,45.80
2023-02-08T20:46:40.091Z,52.00
2023-02-08T21:22:11.366Z,61.50
2023-02-08T21:26:18.127Z,39.90
2023-02-08T21:30:21.359Z,43.10
2023-02-08T21:34:24.804Z,39.20
2023-02-08T21:38:28.169Z,36.70
2023-02-08T21:42:59.628Z,37.30
2023-02-08T21:47:02.889Z,25.80
2023-02-08T21:57:07.563Z,48.60
2023-02-08T22:01:10.598Z,57.90
2023-02-08T22:10:30.085Z,81.50
2023-02-08T22:14:36.541Z,78.40
2023-02-08T22:18:41.567Z,70.60
2023-02-08T22:22:59.988Z,65.20
2023-02-08T22:27:04.032Z,57.20
2023-02-08T22:31:07.352Z,54.30
2023-02-08T22:35:12.811Z,56.00
2023-02-08T22:39:15.991Z,45.70
2023-02-08T22:43:19.127Z,46.40
2023-02-08T22:47:22.899Z,48.80
2023-02-08T22:51:26.095Z,38.10
2023-02-08T22:55:29.248Z,33.60
2023-02-08T22:59:33.491Z,44.30
2023-02-08T23:03:36.522Z,35.20
2023-02-08T23:07:39.771Z,37.60
2023-02-08T23:11:42.953Z,39.40
2023-02-08T23:15:46.005Z,36.80
2023-02-08T23:20:16.826Z,32.80
2023-02-08T23:24:19.822Z,33.80
2023-02-08T23:28:23.079Z,28.70
2023-02-08T23:32:26.435Z,31.60
2023-02-08T23:36:29.544Z,35.60
2023-02-08T23:40:32.564Z,33.50
2023-02-08T23:44:41.025Z,29.10
2023-02-08T23:48:44.946Z,21.90
2023-02-08T23:52:47.984Z,17.70
2023-02-08T23:56:54.378Z,26.20
